Time;durP1;ratioP1;P1;durP2;ratioP2;P2;SDS_P1;SDS_P2;PMS_P1;PMS_P2;Temp;Humidity;BMP_temperature;BMP_pressure;BME280_temperature;BME280_humidity;BME280_pressure;Samples;Min_cycle;Max_cycle;Signal;HPM_P1;HPM_P2
2023/01/28 00:00:44;;;;;;;;;;;;;;;;;;5064038;28;19917;-77
2023/01/28 00:03:10;;;;;;;;;;;;;;;;;;5066093;28;19912;-77
2023/01/28 00:05:35;;;;;;;;;;;;;;;;;;5070333;28;19957;-77
2023/01/28 00:08:00;;;;;;;;;;;;;;;;;;5064036;28;19920;-77
2023/01/28 00:10:25;;;;;;;;;;;;;;;;;;5067711;28;19913;-77
2023/01/28 00:12:50;;;;;;;;;;;;;;;;;;5064287;28;19965;-77
2023/01/28 00:15:15;;;;;;;;;;;;;;;;;;5068920;28;19958;-77
2023/01/28 00:17:40;;;;;;;;;;;;;;;;;;5068394;28;20015;-77
2023/01/28 00:20:06;;;;;;;;;;;;;;;;;;5070375;28;19931;-77
2023/01/28 00:22:31;;;;;;;;;;;;;;;;;;5060219;28;20284;-77
2023/01/28 00:24:56;;;;;;;;;;;;;;;;;;5066810;28;19913;-77
2023/01/28 00:27:21;;;;;;;;;;;;;;;;;;5042855;28;19919;-78
2023/01/28 00:29:47;;;;;;;;;;;;;;;;;;5070450;28;20002;-78
2023/01/28 00:32:12;;;;;;;;;;;;;;;;;;5067124;28;19919;-78
2023/01/28 00:34:37;;;;;;;;;;;;;;;;;;5071059;28;19912;-78
2023/01/28 00:37:02;;;;;;;;;;;;;;;;;;5069688;28;20261;-76
2023/01/28 00:39:27;;;;;;;;;;;;;;;;;;5052019;28;19917;-77
2023/01/28 00:41:53;;;;;;;;;;;;;;;;;;5072823;28;19966;-77
2023/01/28 00:44:18;;;;;;;;;;;;;;;;;;5070531;28;19912;-77
2023/01/28 00:46:43;;;;;;;;;;;;;;;;;;5073190;28;20418;-77
2023/01/28 00:49:08;;;;;;;;;;;;;;;;;;5072117;28;19967;-78
2023/01/28 00:51:34;;;;;;;;;;;;;;;;;;5056491;28;19938;-78
2023/01/28 00:53:59;;;;;;;;;;;;;;;;;;5071889;28;20284;-78
2023/01/28 00:56:24;;;;;;;;;;;;;;;;;;5068220;28;19931;-78
2023/01/28 00:58:49;;;;;;;;;;;;;;;;;;5061013;28;19966;-78
2023/01/28 01:01:14;;;;;;;;;;;;;;;;;;5072164;28;20002;-78
2023/01/28 01:03:39;;;;;;;;;;;;;;;;;;5070587;28;20407;-78
2023/01/28 01:06:04;;;;;;;;;;;;;;;;;;5070941;28;19999;-78
2023/01/28 01:08:38;;;;;;;;;;;;;;;;;;5064416;28;19925;-78
2023/01/28 01:11:03;;;;;;;;;;;;;;;;;;5042773;28;19963;-78
2023/01/28 01:13:29;;;;;;;;;;;;;;;;;;5068677;28;19948;-78
2023/01/28 01:15:56;;;;;;;;;;;;;;;;;;5042172;28;19920;-78
2023/01/28 01:18:21;;;;;;;;;;;;;;;;;;5072390;28;19917;-78
2023/01/28 01:20:48;;;;;;;;;;;;;;;;;;5071632;28;19916;-78
2023/01/28 01:23:14;;;;;;;;;;;;;;;;;;5073003;28;19919;-78
2023/01/28 01:25:39;;;;;;;;;;;;;;;;;;5068769;28;19917;-78
2023/01/28 01:28:04;;;;;;;;;;;;;;;;;;5071763;28;19943;-78
2023/01/28 01:30:29;;;;;;;;;;;;;;;;;;5070908;28;20008;-77
2023/01/28 01:32:54;;;;;;;;;;;;;;;;;;5072050;28;19975;-79
2023/01/28 01:35:19;;;;;;;;;;;;;;;;;;5071128;28;20015;-78
2023/01/28 01:37:45;;;;;;;;;;;;;;;;;;5065766;28;19916;-78
2023/01/28 01:40:10;;;;;;;;;;;;;;;;;;5063573;28;19966;-78
2023/01/28 01:42:35;;;;;;;;;;;;;;;;;;5049734;28;20055;-78
2023/01/28 01:45:01;;;;;;;;;;;;;;;;;;5049032;28;19991;-77
2023/01/28 01:47:26;;;;;;;;;;;;;;;;;;5048521;28;20007;-78
2023/01/28 01:49:51;;;;;;;;;;;;;;;;;;5066404;28;20011;-78
2023/01/28 01:52:16;;;;;;;;;;;;;;;;;;5051397;28;20522;-77
2023/01/28 01:54:41;;;;;;;;;;;;;;;;;;5051150;28;19995;-77
2023/01/28 01:57:06;;;;;;;;;;;;;;;;;;5053441;28;19917;-77
2023/01/28 01:59:31;;;;;;;;;;;;;;;;;;5071490;28;20380;-77
2023/01/28 02:01:57;;;;;;;;;;;;;;;;;;5069392;28;19970;-77
2023/01/28 02:04:22;;;;;;;;;;;;;;;;;;5041640;28;20265;-77
2023/01/28 02:06:47;;;;;;;;;;;;;;;;;;5050502;28;20265;-77
2023/01/28 02:09:12;;;;;;;;;;;;;;;;;;5050849;28;19924;-76
2023/01/28 02:11:37;;;;;;;;;;;;;;;;;;5054160;28;20283;-77
2023/01/28 02:14:02;;;;;;;;;;;;;;;;;;5052048;28;19958;-77
2023/01/28 02:16:27;;;;;;;;;;;;;;;;;;5054575;28;19923;-77
2023/01/28 02:18:53;;;;;;;;;;;;;;;;;;5052474;28;19927;-78
2023/01/28 02:21:18;;;;;;;;;;;;;;;;;;5052939;28;19917;-78
2023/01/28 02:23:43;;;;;;;;;;;;;;;;;;5049814;28;19912;-78
2023/01/28 02:26:08;;;;;;;;;;;;;;;;;;5051642;28;20317;-78
2023/01/28 02:28:33;;;;;;;;;;;;;;;;;;5068770;28;19966;-77
2023/01/28 02:30:58;;;;;;;;;;;;;;;;;;5068395;28;19912;-78
2023/01/28 02:33:24;;;;;;;;;;;;;;;;;;5071136;28;20132;-79
2023/01/28 02:35:49;;;;;;;;;;;;;;;;;;5071898;28;20015;-78
2023/01/28 02:38:14;;;;;;;;;;;;;;;;;;5062559;28;19962;-77
2023/01/28 02:43:23;;;;;;;;;;;;;;;;;;5067029;28;19943;-77
2023/01/28 02:48:32;;;;;;;;;;;;;;;;;;5070090;28;19970;-77
2023/01/28 02:50:57;;;;;;;;;;;;;;;;;;5065964;28;19912;-77
2023/01/28 02:53:42;;;;;;;;;;;;;;;;;;5069424;28;20016;-77
2023/01/28 02:56:07;;;;;;;;;;;;;;;;;;5062100;28;20295;-77
2023/01/28 02:58:33;;;;;;;;;;;;;;;;;;5069060;28;20344;-77
2023/01/28 03:00:58;;;;;;;;;;;;;;;;;;5069439;28;19912;-77
2023/01/28 03:03:23;;;;;;;;;;;;;;;;;;5068922;28;19913;-77
2023/01/28 03:06:02;;;;;;;;;;;;;;;;;;5061904;28;20054;-77
2023/01/28 03:38:32;;;;;;;;;;;;;;;;;;5063806;28;20403;-78
2023/01/28 03:40:59;;;;;;;;;;;;;;;;;;5061225;28;20012;-78
2023/01/28 03:43:24;;;;;;;;;;;;;;;;;;5066751;28;19989;-78
2023/01/28 03:45:54;;;;;;;;;;;;;;;;;;5068643;28;19916;-78
2023/01/28 03:48:19;;;;;;;;;;;;;;;;;;5063908;28;19923;-78
2023/01/28 03:50:44;;;;;;;;;;;;;;;;;;5069526;28;19916;-78
2023/01/28 03:53:13;;;;;;;;;;;;;;;;;;5062103;28;19920;-78
2023/01/28 03:55:38;;;;;;;;;;;;;;;;;;5069130;28;19924;-77
2023/01/28 03:58:04;;;;;;;;;;;;;;;;;;5066576;28;19909;-78
2023/01/28 04:00:29;;;;;;;;;;;;;;;;;;5070321;28;19920;-78
2023/01/28 04:02:54;;;;;;;;;;;;;;;;;;5061648;28;19913;-78
2023/01/28 04:05:20;;;;;;;;;;;;;;;;;;5066637;28;19912;-78
2023/01/28 04:07:45;;;;;;;;;;;;;;;;;;5063725;28;19916;-77
2023/01/28 04:10:10;;;;;;;;;;;;;;;;;;5070409;28;20258;-77
2023/01/28 04:12:36;;;;;;;;;;;;;;;;;;5071762;28;20312;-77
2023/01/28 04:15:14;;;;;;;;;;;;;;;;;;5066919;28;20308;-77
2023/01/28 04:17:39;;;;;;;;;;;;;;;;;;5066262;28;20404;-77
2023/01/28 04:20:04;;;;;;;;;;;;;;;;;;5072220;28;19923;-77
2023/01/28 04:22:29;;;;;;;;;;;;;;;;;;5073033;28;19967;-78
2023/01/28 04:24:54;;;;;;;;;;;;;;;;;;5071877;28;19917;-78
2023/01/28 04:27:19;;;;;;;;;;;;;;;;;;5067400;28;19927;-78
2023/01/28 04:29:44;;;;;;;;;;;;;;;;;;5055871;28;20281;-78
2023/01/28 04:32:10;;;;;;;;;;;;;;;;;;5055097;28;20303;-77
2023/01/28 04:34:35;;;;;;;;;;;;;;;;;;5071935;28;19948;-77
2023/01/28 04:37:00;;;;;;;;;;;;;;;;;;5051050;28;19917;-77
2023/01/28 04:39:25;;;;;;;;;;;;;;;;;;5065376;28;20007;-78
2023/01/28 04:41:50;;;;;;;;;;;;;;;;;;5072321;28;19970;-78
2023/01/28 04:44:16;;;;;;;;;;;;;;;;;;5052882;28;20296;-78
2023/01/28 04:46:41;;;;;;;;;;;;;;;;;;5043885;28;19912;-77
2023/01/28 04:49:06;;;;;;;;;;;;;;;;;;5039811;28;19965;-77
2023/01/28 04:51:31;;;;;;;;;;;;;;;;;;5073815;28;20404;-76
2023/01/28 04:53:56;;;;;;;;;;;;;;;;;;5041169;28;20300;-77
2023/01/28 04:56:21;;;;;;;;;;;;;;;;;;5045520;28;19960;-78
2023/01/28 04:58:47;;;;;;;;;;;;;;;;;;5047040;28;19927;-78
2023/01/28 05:01:12;;;;;;;;;;;;;;;;;;5071621;28;19917;-78
2023/01/28 05:03:37;;;;;;;;;;;;;;;;;;5072347;28;19919;-78
2023/01/28 05:06:03;;;;;;;;;;;;;;;;;;5040457;28;19919;-78
2023/01/28 05:08:29;;;;;;;;;;;;;;;;;;5069844;28;19927;-77
2023/01/28 05:10:54;;;;;;;;;;;;;;;;;;5049471;28;20288;-78
2023/01/28 05:13:19;;;;;;;;;;;;;;;;;;5038424;28;20376;-78
2023/01/28 05:15:44;;;;;;;;;;;;;;;;;;5055659;28;19964;-78
2023/01/28 05:18:09;;;;;;;;;;;;;;;;;;5047353;28;19916;-78
2023/01/28 05:20:34;;;;;;;;;;;;;;;;;;5045871;28;20012;-78
2023/01/28 05:22:59;;;;;;;;;;;;;;;;;;5047627;28;19916;-78
2023/01/28 05:25:26;;;;;;;;;;;;;;;;;;5068696;28;19919;-78
2023/01/28 05:27:51;;;;;;;;;;;;;;;;;;5046416;28;19916;-78
2023/01/28 05:30:16;;;;;;;;;;;;;;;;;;5050991;28;19919;-78
2023/01/28 05:32:41;;;;;;;;;;;;;;;;;;5071747;28;19939;-75
2023/01/28 05:35:06;;;;;;;;;;;;;;;;;;5045641;28;20292;-77
2023/01/28 05:37:31;;;;;;;;;;;;;;;;;;5046228;28;20349;-77
2023/01/28 05:39:57;;;;;;;;;;;;;;;;;;5067109;28;20371;-77
2023/01/28 05:42:22;;;;;;;;;;;;;;;;;;5072204;28;20403;-79
2023/01/28 05:44:47;;;;;;;;;;;;;;;;;;5053431;28;19916;-77
2023/01/28 05:47:12;;;;;;;;;;;;;;;;;;5062635;28;19908;-78
2023/01/28 05:49:37;;;;;;;;;;;;;;;;;;5052458;28;19917;-79
2023/01/28 05:52:02;;;;;;;;;;;;;;;;;;5053186;28;19912;-79
2023/01/28 05:54:28;;;;;;;;;;;;;;;;;;5071969;28;20484;-79
2023/01/28 05:56:53;;;;;;;;;;;;;;;;;;5069705;28;19920;-77
2023/01/28 05:59:18;;;;;;;;;;;;;;;;;;5072240;28;20296;-77
2023/01/28 06:01:43;;;;;;;;;;;;;;;;;;5061962;28;19913;-78
2023/01/28 06:04:08;;;;;;;;;;;;;;;;;;5044438;28;19909;-77
2023/01/28 06:06:33;;;;;;;;;;;;;;;;;;5070628;28;20003;-77
2023/01/28 06:08:58;;;;;;;;;;;;;;;;;;5059001;28;20365;-78
2023/01/28 06:11:23;;;;;;;;;;;;;;;;;;5066692;28;19912;-78
2023/01/28 06:13:49;;;;;;;;;;;;;;;;;;5061236;28;20003;-78
2023/01/28 06:16:14;;;;;;;;;;;;;;;;;;5069849;28;19920;-78
2023/01/28 06:18:40;;;;;;;;;;;;;;;;;;5066270;28;19966;-77
2023/01/28 06:21:05;;;;;;;;;;;;;;;;;;5050292;28;20375;-79
2023/01/28 06:23:30;;;;;;;;;;;;;;;;;;5053425;28;19974;-79
2023/01/28 06:25:55;;;;;;;;;;;;;;;;;;5070223;28;19920;-78
2023/01/28 06:28:20;;;;;;;;;;;;;;;;;;5040082;28;19938;-78
2023/01/28 06:30:46;;;;;;;;;;;;;;;;;;5046555;28;19908;-78
2023/01/28 06:33:11;;;;;;;;;;;;;;;;;;5051861;28;19999;-78
2023/01/28 06:35:36;;;;;;;;;;;;;;;;;;5063460;28;19916;-78
2023/01/28 06:38:03;;;;;;;;;;;;;;;;;;5037718;28;19912;-77
2023/01/28 06:40:28;;;;;;;;;;;;;;;;;;5067220;28;20428;-77
2023/01/28 06:42:53;;;;;;;;;;;;;;;;;;5059912;28;20321;-79
2023/01/28 06:45:18;;;;;;;;;;;;;;;;;;5051163;28;20377;-78
2023/01/28 06:47:43;;;;;;;;;;;;;;;;;;5064792;28;19912;-77
2023/01/28 06:50:08;;;;;;;;;;;;;;;;;;5049119;28;20045;-77
2023/01/28 06:52:34;;;;;;;;;;;;;;;;;;5069075;28;19912;-76
2023/01/28 06:55:00;;;;;;;;;;;;;;;;;;5052027;28;19916;-76
2023/01/28 06:57:25;;;;;;;;;;;;;;;;;;5067054;28;20006;-80
2023/01/28 06:59:51;;;;;;;;;;;;;;;;;;5045676;28;19948;-77
2023/01/28 07:02:16;;;;;;;;;;;;;;;;;;5052714;28;20023;-78
2023/01/28 07:04:41;;;;;;;;;;;;;;;;;;5044705;28;19909;-78
2023/01/28 07:07:06;;;;;;;;;;;;;;;;;;5065541;28;20324;-77
2023/01/28 07:09:31;;;;;;;;;;;;;;;;;;5060294;28;19924;-78
2023/01/28 07:11:56;;;;;;;;;;;;;;;;;;5043013;28;19919;-77
2023/01/28 07:14:21;;;;;;;;;;;;;;;;;;5050096;28;19912;-78
2023/01/28 07:16:47;;;;;;;;;;;;;;;;;;5049538;28;19913;-77
2023/01/28 07:19:12;;;;;;;;;;;;;;;;;;5064515;28;19931;-78
2023/01/28 07:21:37;;;;;;;;;;;;;;;;;;5051922;28;19963;-78
2023/01/28 07:24:04;;;;;;;;;;;;;;;;;;5053061;28;19923;-80
2023/01/28 07:26:29;;;;;;;;;;;;;;;;;;5045774;28;19916;-78
2023/01/28 07:28:54;;;;;;;;;;;;;;;;;;5071657;28;19931;-78
2023/01/28 07:31:19;;;;;;;;;;;;;;;;;;5069398;28;20360;-78
2023/01/28 07:33:44;;;;;;;;;;;;;;;;;;5064348;28;19917;-77
2023/01/28 07:36:09;;;;;;;;;;;;;;;;;;5069202;28;19944;-78
2023/01/28 07:38:34;;;;;;;;;;;;;;;;;;5065472;28;19920;-79
2023/01/28 07:41:00;;;;;;;;;;;;;;;;;;5050271;28;19920;-78
2023/01/28 07:43:25;;;;;;;;;;;;;;;;;;5069005;28;19917;-77
2023/01/28 07:45:50;;;;;;;;;;;;;;;;;;5070561;28;19920;-76
2023/01/28 07:48:15;;;;;;;;;;;;;;;;;;5067481;28;20402;-76
2023/01/28 07:50:40;;;;;;;;;;;;;;;;;;5070445;28;19927;-77
2023/01/28 07:53:06;;;;;;;;;;;;;;;;;;5071368;28;19997;-78
2023/01/28 07:55:31;;;;;;;;;;;;;;;;;;5062504;28;19920;-77
2023/01/28 07:57:56;;;;;;;;;;;;;;;;;;5051491;28;20281;-75
2023/01/28 08:00:21;;;;;;;;;;;;;;;;;;5069980;28;19971;-77
2023/01/28 08:02:47;;;;;;;;;;;;;;;;;;5053084;28;19916;-77
2023/01/28 08:05:12;;;;;;;;;;;;;;;;;;5062216;28;19947;-78
2023/01/28 08:07:37;;;;;;;;;;;;;;;;;;5065108;28;19999;-78
2023/01/28 08:10:02;;;;;;;;;;;;;;;;;;5066343;28;19998;-77
2023/01/28 08:12:27;;;;;;;;;;;;;;;;;;5070788;28;20273;-77
2023/01/28 08:14:52;;;;;;;;;;;;;;;;;;5052615;28;20427;-77
2023/01/28 08:17:18;;;;;;;;;;;;;;;;;;5052704;28;20394;-77
2023/01/28 08:19:43;;;;;;;;;;;;;;;;;;5069585;28;20457;-77
2023/01/28 08:22:08;;;;;;;;;;;;;;;;;;5050154;28;20003;-78
2023/01/28 08:24:33;;;;;;;;;;;;;;;;;;5069900;28;20123;-77
2023/01/28 08:26:58;;;;;;;;;;;;;;;;;;5067492;28;19962;-78
2023/01/28 08:29:23;;;;;;;;;;;;;;;;;;5049943;28;19970;-77
2023/01/28 08:31:48;;;;;;;;;;;;;;;;;;5068520;28;19920;-76
2023/01/28 08:34:13;;;;;;;;;;;;;;;;;;5064534;28;19917;-78
2023/01/28 08:36:39;;;;;;;;;;;;;;;;;;5051253;28;19943;-77
2023/01/28 08:39:04;;;;;;;;;;;;;;;;;;5061944;28;19924;-78
2023/01/28 08:41:30;;;;;;;;;;;;;;;;;;5060529;28;19912;-78
2023/01/28 08:43:55;;;;;;;;;;;;;;;;;;5067540;28;19917;-78
2023/01/28 08:46:20;;;;;;;;;;;;;;;;;;5068338;28;19938;-77
2023/01/28 08:48:45;;;;;;;;;;;;;;;;;;5068787;28;19998;-77
2023/01/28 08:51:10;;;;;;;;;;;;;;;;;;5067466;28;19931;-78
2023/01/28 08:53:35;;;;;;;;;;;;;;;;;;5068962;28;19912;-78
2023/01/28 08:56:00;;;;;;;;;;;;;;;;;;5057653;28;20007;-79
2023/01/28 08:58:26;;;;;;;;;;;;;;;;;;5057885;28;19913;-79
2023/01/28 09:00:51;;;;;;;;;;;;;;;;;;5073699;28;19921;-79
2023/01/28 09:03:16;;;;;;;;;;;;;;;;;;5057814;28;20426;-79
2023/01/28 09:05:41;;;;;;;;;;;;;;;;;;5057015;28;19999;-79
2023/01/28 09:08:06;;;;;;;;;;;;;;;;;;5048484;28;19917;-76
2023/01/28 09:10:31;;;;;;;;;;;;;;;;;;5046795;28;19917;-80
2023/01/28 09:12:57;;;;;;;;;;;;;;;;;;5066077;28;19913;-79
2023/01/28 09:15:22;;;;;;;;;;;;;;;;;;5073005;28;20372;-79
2023/01/28 09:17:47;;;;;;;;;;;;;;;;;;5072052;28;19920;-81
2023/01/28 09:20:12;;;;;;;;;;;;;;;;;;5049679;28;19913;-83
2023/01/28 09:22:37;;;;;;;;;;;;;;;;;;5042363;28;20273;-79
2023/01/28 09:25:02;;;;;;;;;;;;;;;;;;5071125;28;19913;-79
2023/01/28 09:27:27;;;;;;;;;;;;;;;;;;5092406;28;19971;-79
2023/01/28 09:29:53;;;;;;;;;;;;;;;;;;5073333;28;20372;-78
2023/01/28 09:32:18;;;;;;;;;;;;;;;;;;5068084;28;19957;-79
2023/01/28 09:34:43;;;;;;;;;;;;;;;;;;5088153;28;19912;-79
2023/01/28 09:37:10;;;;;;;;;;;;;;;;;;5063712;28;19920;-80
2023/01/28 09:39:35;;;;;;;;;;;;;;;;;;5060923;28;19970;-80
2023/01/28 09:42:00;;;;;;;;;;;;;;;;;;5064572;28;19916;-79
2023/01/28 09:44:25;;;;;;;;;;;;;;;;;;5067921;28;19912;-80
2023/01/28 09:46:50;;;;;;;;;;;;;;;;;;5071238;28;19926;-81
2023/01/28 09:49:15;;;;;;;;;;;;;;;;;;5089908;28;19916;-81
2023/01/28 09:51:41;;;;;;;;;;;;;;;;;;5090573;28;20296;-81
2023/01/28 09:54:06;;;;;;;;;;;;;;;;;;5063603;28;19957;-80
2023/01/28 09:56:31;;;;;;;;;;;;;;;;;;5074954;28;19911;-82
2023/01/28 09:58:56;;;;;;;;;;;;;;;;;;5068321;28;19912;-82
2023/01/28 10:01:21;;;;;;;;;;;;;;;;;;5075663;28;19919;-82
2023/01/28 10:03:47;;;;;;;;;;;;;;;;;;5066122;28;19925;-80
2023/01/28 10:06:13;;;;;;;;;;;;;;;;;;5069966;28;19912;-81
2023/01/28 10:08:38;;;;;;;;;;;;;;;;;;5063773;28;19924;-81
2023/01/28 10:11:03;;;;;;;;;;;;;;;;;;5072044;28;19912;-81
2023/01/28 10:13:28;;;;;;;;;;;;;;;;;;5061920;28;19912;-81
2023/01/28 10:15:54;;;;;;;;;;;;;;;;;;5085575;28;19912;-81
2023/01/28 10:18:19;;;;;;;;;;;;;;;;;;5091215;28;19948;-81
2023/01/28 10:20:44;;;;;;;;;;;;;;;;;;5088157;28;19912;-82
2023/01/28 10:23:09;;;;;;;;;;;;;;;;;;5064899;28;19908;-82
2023/01/28 10:25:35;;;;;;;;;;;;;;;;;;5065056;28;19924;-81
2023/01/28 10:28:00;;;;;;;;;;;;;;;;;;5073514;28;19942;-81
2023/01/28 10:30:25;;;;;;;;;;;;;;;;;;5088959;28;19920;-81
2023/01/28 10:32:50;;;;;;;;;;;;;;;;;;5058757;28;19917;-81
2023/01/28 10:35:15;;;;;;;;;;;;;;;;;;5081812;28;19923;-81
2023/01/28 10:37:40;;;;;;;;;;;;;;;;;;5066501;28;20026;-81
2023/01/28 10:40:05;;;;;;;;;;;;;;;;;;5066213;28;20415;-81
2023/01/28 10:42:31;;;;;;;;;;;;;;;;;;5085538;28;19974;-81
2023/01/28 10:44:56;;;;;;;;;;;;;;;;;;5067168;28;19916;-82
2023/01/28 10:47:21;;;;;;;;;;;;;;;;;;5077975;28;19970;-81
2023/01/28 10:49:46;;;;;;;;;;;;;;;;;;5086391;28;19985;-81
2023/01/28 10:52:11;;;;;;;;;;;;;;;;;;5063504;28;19919;-81
2023/01/28 10:54:36;;;;;;;;;;;;;;;;;;5066828;28;19909;-81
2023/01/28 10:57:02;;;;;;;;;;;;;;;;;;5067102;28;19997;-82
2023/01/28 10:59:27;;;;;;;;;;;;;;;;;;5075591;28;19929;-79
2023/01/28 11:01:52;;;;;;;;;;;;;;;;;;5093210;28;19908;-81
2023/01/28 11:04:18;;;;;;;;;;;;;;;;;;5059656;28;19927;-83
2023/01/28 11:06:43;;;;;;;;;;;;;;;;;;5092298;28;19912;-83
2023/01/28 11:09:08;;;;;;;;;;;;;;;;;;5083008;28;20336;-79
2023/01/28 11:11:33;;;;;;;;;;;;;;;;;;5059784;28;19951;-81
2023/01/28 11:14:00;;;;;;;;;;;;;;;;;;5070719;28;20359;-81
2023/01/28 11:16:25;;;;;;;;;;;;;;;;;;5074394;28;19912;-81
2023/01/28 11:18:51;;;;;;;;;;;;;;;;;;5091959;28;19916;-82
2023/01/28 11:21:16;;;;;;;;;;;;;;;;;;5074238;28;19918;-81
2023/01/28 11:23:41;;;;;;;;;;;;;;;;;;5092353;28;19957;-81
2023/01/28 11:26:06;;;;;;;;;;;;;;;;;;5059764;28;20458;-80
2023/01/28 11:28:31;;;;;;;;;;;;;;;;;;5078863;28;19916;-81
2023/01/28 11:30:57;;;;;;;;;;;;;;;;;;5074473;28;19962;-81
2023/01/28 11:33:22;;;;;;;;;;;;;;;;;;5072867;28;19962;-80
2023/01/28 11:35:47;;;;;;;;;;;;;;;;;;5090640;28;19913;-81
2023/01/28 11:38:12;;;;;;;;;;;;;;;;;;5084939;28;20297;-81
2023/01/28 11:40:37;;;;;;;;;;;;;;;;;;5059157;28;19912;-82
2023/01/28 11:43:02;;;;;;;;;;;;;;;;;;5070519;28;20514;-81
2023/01/28 11:45:28;;;;;;;;;;;;;;;;;;5066294;28;19912;-83
2023/01/28 11:47:53;;;;;;;;;;;;;;;;;;5070573;28;19912;-81
2023/01/28 11:50:18;;;;;;;;;;;;;;;;;;5087806;28;19919;-80
2023/01/28 11:52:43;;;;;;;;;;;;;;;;;;5081025;28;19912;-77
2023/01/28 11:55:09;;;;;;;;;;;;;;;;;;5085520;28;20000;-78
2023/01/28 11:57:34;;;;;;;;;;;;;;;;;;5087264;28;19998;-78
2023/01/28 12:00:00;;;;;;;;;;;;;;;;;;5083888;28;20007;-83
2023/01/28 12:02:25;;;;;;;;;;;;;;;;;;5067771;28;19920;-82
2023/01/28 12:04:50;;;;;;;;;;;;;;;;;;5061275;28;19917;-79
2023/01/28 12:07:15;;;;;;;;;;;;;;;;;;5081076;28;19920;-79
2023/01/28 12:09:43;;;;;;;;;;;;;;;;;;5063264;28;19920;-84
2023/01/28 12:12:12;;;;;;;;;;;;;;;;;;5069409;28;19918;-82
2023/01/28 12:14:37;;;;;;;;;;;;;;;;;;5089572;28;19956;-86
2023/01/28 12:17:02;;;;;;;;;;;;;;;;;;5073497;28;20343;-84
2023/01/28 12:19:30;;;;;;;;;;;;;;;;;;5069536;28;19924;-87
2023/01/28 12:21:55;;;;;;;;;;;;;;;;;;5072678;28;19914;-85
2023/01/28 12:24:20;;;;;;;;;;;;;;;;;;5070779;28;19920;-88
2023/01/28 12:26:45;;;;;;;;;;;;;;;;;;5069490;28;20345;-84
2023/01/28 12:29:10;;;;;;;;;;;;;;;;;;5073141;28;20027;-84
2023/01/28 12:31:35;;;;;;;;;;;;;;;;;;5074308;28;19920;-79
2023/01/28 12:34:01;;;;;;;;;;;;;;;;;;5072473;28;20383;-80
2023/01/28 12:36:26;;;;;;;;;;;;;;;;;;5075983;28;19959;-79
2023/01/28 12:38:51;;;;;;;;;;;;;;;;;;5081592;28;20006;-79
2023/01/28 12:41:16;;;;;;;;;;;;;;;;;;5074521;28;19944;-78
2023/01/28 12:43:41;;;;;;;;;;;;;;;;;;5075602;28;20382;-79
2023/01/28 12:46:07;;;;;;;;;;;;;;;;;;5067363;28;19920;-79
2023/01/28 12:48:32;;;;;;;;;;;;;;;;;;5070831;28;19916;-80
2023/01/28 12:50:57;;;;;;;;;;;;;;;;;;5072860;28;19922;-81
2023/01/28 12:53:22;;;;;;;;;;;;;;;;;;5090202;28;19943;-78
2023/01/28 12:55:47;;;;;;;;;;;;;;;;;;5088269;28;20006;-80
2023/01/28 12:58:12;;;;;;;;;;;;;;;;;;5076198;28;19908;-79
2023/01/28 13:00:37;;;;;;;;;;;;;;;;;;5068580;28;19912;-80
2023/01/28 13:03:02;;;;;;;;;;;;;;;;;;5090865;28;20287;-81
2023/01/28 13:05:28;;;;;;;;;;;;;;;;;;5093153;28;19912;-80
2023/01/28 13:07:53;;;;;;;;;;;;;;;;;;5072317;28;19908;-80
2023/01/28 13:10:18;;;;;;;;;;;;;;;;;;5067762;28;19919;-79
2023/01/28 13:12:43;;;;;;;;;;;;;;;;;;5072562;28;19957;-79
2023/01/28 13:15:08;;;;;;;;;;;;;;;;;;5089968;28;19919;-79
2023/01/28 13:17:34;;;;;;;;;;;;;;;;;;5072116;28;20007;-79
2023/01/28 13:19:59;;;;;;;;;;;;;;;;;;5087862;28;20018;-79
2023/01/28 13:22:24;;;;;;;;;;;;;;;;;;5094417;28;19912;-78
2023/01/28 13:24:49;;;;;;;;;;;;;;;;;;5069831;28;20308;-79
2023/01/28 13:27:15;;;;;;;;;;;;;;;;;;5074503;28;20379;-80
2023/01/28 13:29:40;;;;;;;;;;;;;;;;;;5055118;28;20507;-80
2023/01/28 13:32:05;;;;;;;;;;;;;;;;;;5070536;28;19917;-79
2023/01/28 13:34:33;;;;;;;;;;;;;;;;;;5070264;28;20349;-79
2023/01/28 13:36:58;;;;;;;;;;;;;;;;;;5043121;28;20062;-80
2023/01/28 13:39:23;;;;;;;;;;;;;;;;;;5061173;28;20004;-78
2023/01/28 13:41:48;;;;;;;;;;;;;;;;;;5064582;28;19947;-79
2023/01/28 13:44:13;;;;;;;;;;;;;;;;;;5048307;28;19916;-78
2023/01/28 13:46:39;;;;;;;;;;;;;;;;;;5050329;28;19959;-78
2023/01/28 13:49:04;;;;;;;;;;;;;;;;;;5071097;28;19924;-78
2023/01/28 13:51:29;;;;;;;;;;;;;;;;;;5052838;28;20299;-79
2023/01/28 13:53:54;;;;;;;;;;;;;;;;;;5069247;28;20715;-78
2023/01/28 13:56:20;;;;;;;;;;;;;;;;;;5051259;28;19916;-78
2023/01/28 13:58:45;;;;;;;;;;;;;;;;;;5077105;28;21727;-78
2023/01/28 14:01:10;;;;;;;;;;;;;;;;;;5048604;28;20395;-78
2023/01/28 14:03:35;;;;;;;;;;;;;;;;;;5072429;28;19912;-77
2023/01/28 14:06:01;;;;;;;;;;;;;;;;;;5053666;28;20014;-78
2023/01/28 14:08:26;;;;;;;;;;;;;;;;;;5062525;28;19917;-78
2023/01/28 14:10:52;;;;;;;;;;;;;;;;;;5064769;28;19917;-79
2023/01/28 14:13:17;;;;;;;;;;;;;;;;;;5066852;28;19982;-78
2023/01/28 14:15:44;;;;;;;;;;;;;;;;;;5077699;28;19962;-79
2023/01/28 14:18:09;;;;;;;;;;;;;;;;;;5051117;28;19919;-79
2023/01/28 14:20:36;;;;;;;;;;;;;;;;;;5070754;28;20019;-79
2023/01/28 14:23:04;;;;;;;;;;;;;;;;;;5071336;28;19920;-78
2023/01/28 14:25:29;;;;;;;;;;;;;;;;;;5058505;28;20375;-78
2023/01/28 14:27:54;;;;;;;;;;;;;;;;;;5070119;28;19993;-78
2023/01/28 14:30:20;;;;;;;;;;;;;;;;;;5090506;28;19924;-78
2023/01/28 14:32:45;;;;;;;;;;;;;;;;;;5072146;28;19923;-79
2023/01/28 14:35:10;;;;;;;;;;;;;;;;;;5073235;28;19931;-77
2023/01/28 14:37:35;;;;;;;;;;;;;;;;;;5062257;28;19912;-77
2023/01/28 14:40:00;;;;;;;;;;;;;;;;;;5069098;28;20359;-78
2023/01/28 14:42:25;;;;;;;;;;;;;;;;;;5086324;28;20020;-78
2023/01/28 14:44:51;;;;;;;;;;;;;;;;;;5072317;28;19914;-78
2023/01/28 14:47:16;;;;;;;;;;;;;;;;;;5088970;28;19912;-78
2023/01/28 14:49:41;;;;;;;;;;;;;;;;;;5083552;28;20425;-77
2023/01/28 14:52:06;;;;;;;;;;;;;;;;;;5082681;28;19974;-77
2023/01/28 14:54:31;;;;;;;;;;;;;;;;;;5073682;28;19961;-77
2023/01/28 14:56:56;;;;;;;;;;;;;;;;;;5071541;28;19943;-78
2023/01/28 14:59:22;;;;;;;;;;;;;;;;;;5072843;28;19908;-77
2023/01/28 15:01:47;;;;;;;;;;;;;;;;;;5064420;28;20008;-77
2023/01/28 15:04:12;;;;;;;;;;;;;;;;;;5091530;28;20516;-78
2023/01/28 15:06:37;;;;;;;;;;;;;;;;;;5088861;28;19909;-78
2023/01/28 15:09:02;;;;;;;;;;;;;;;;;;5087651;28;19916;-79
2023/01/28 15:11:27;;;;;;;;;;;;;;;;;;5069763;28;20375;-78
2023/01/28 15:13:53;;;;;;;;;;;;;;;;;;5067534;28;20399;-78
2023/01/28 15:16:18;;;;;;;;;;;;;;;;;;5064464;28;20010;-78
2023/01/28 15:18:43;;;;;;;;;;;;;;;;;;5076953;28;19924;-77
2023/01/28 15:21:08;;;;;;;;;;;;;;;;;;5083356;28;19950;-77
2023/01/28 15:23:33;;;;;;;;;;;;;;;;;;5083051;28;19919;-79
2023/01/28 15:25:58;;;;;;;;;;;;;;;;;;5068538;28;19970;-79
2023/01/28 15:28:23;;;;;;;;;;;;;;;;;;5070284;28;19978;-78
2023/01/28 15:30:50;;;;;;;;;;;;;;;;;;5088670;28;21260;-78
2023/01/28 15:33:16;;;;;;;;;;;;;;;;;;5087100;28;19912;-78
2023/01/28 15:35:41;;;;;;;;;;;;;;;;;;5077030;28;19912;-78
2023/01/28 15:38:06;;;;;;;;;;;;;;;;;;5068033;28;19920;-78
2023/01/28 15:40:31;;;;;;;;;;;;;;;;;;5067579;28;19912;-78
2023/01/28 15:42:57;;;;;;;;;;;;;;;;;;5066713;28;20402;-78
2023/01/28 15:45:24;;;;;;;;;;;;;;;;;;5072213;28;19920;-78
2023/01/28 15:47:49;;;;;;;;;;;;;;;;;;5071096;28;19995;-78
2023/01/28 15:50:15;;;;;;;;;;;;;;;;;;5065336;28;20394;-78
2023/01/28 15:52:40;;;;;;;;;;;;;;;;;;5088568;28;19947;-79
2023/01/28 15:55:05;;;;;;;;;;;;;;;;;;5084083;28;19962;-78
2023/01/28 15:57:30;;;;;;;;;;;;;;;;;;5088270;28;19912;-78
2023/01/28 15:59:55;;;;;;;;;;;;;;;;;;5091207;28;20014;-79
2023/01/28 16:02:20;;;;;;;;;;;;;;;;;;5065619;28;20485;-78
2023/01/28 16:04:46;;;;;;;;;;;;;;;;;;5071161;28;19958;-79
2023/01/28 16:07:11;;;;;;;;;;;;;;;;;;5078808;28;19920;-77
2023/01/28 16:09:36;;;;;;;;;;;;;;;;;;5064488;28;20403;-77
2023/01/28 16:12:01;;;;;;;;;;;;;;;;;;5066134;28;19912;-78
2023/01/28 16:14:26;;;;;;;;;;;;;;;;;;5081668;28;19916;-79
2023/01/28 16:16:51;;;;;;;;;;;;;;;;;;5062767;28;20387;-78
2023/01/28 16:19:17;;;;;;;;;;;;;;;;;;5087235;28;19912;-78
2023/01/28 16:21:42;;;;;;;;;;;;;;;;;;5065239;28;19923;-78
2023/01/28 16:24:07;;;;;;;;;;;;;;;;;;5065548;28;19938;-79
2023/01/28 16:26:33;;;;;;;;;;;;;;;;;;5071388;28;20032;-79
2023/01/28 16:28:58;;;;;;;;;;;;;;;;;;5042903;28;19916;-76
2023/01/28 16:31:23;;;;;;;;;;;;;;;;;;5049149;28;19912;-80
2023/01/28 16:33:48;;;;;;;;;;;;;;;;;;5051435;28;19924;-77
2023/01/28 16:36:13;;;;;;;;;;;;;;;;;;5044472;28;19912;-79
2023/01/28 16:38:39;;;;;;;;;;;;;;;;;;5040502;28;19928;-79
2023/01/28 16:41:05;;;;;;;;;;;;;;;;;;5069556;28;19935;-81
2023/01/28 16:43:30;;;;;;;;;;;;;;;;;;5043753;28;19913;-80
2023/01/28 16:45:55;;;;;;;;;;;;;;;;;;5046645;28;20361;-80
2023/01/28 16:48:21;;;;;;;;;;;;;;;;;;5041312;28;19920;-80
2023/01/28 16:50:46;;;;;;;;;;;;;;;;;;5053364;28;19951;-79
2023/01/28 16:53:11;;;;;;;;;;;;;;;;;;5070084;28;19912;-79
2023/01/28 16:55:36;;;;;;;;;;;;;;;;;;5053594;28;19908;-79
2023/01/28 16:58:01;;;;;;;;;;;;;;;;;;5070129;28;20035;-79
2023/01/28 17:00:29;;;;;;;;;;;;;;;;;;5061651;28;20291;-83
2023/01/28 17:02:54;;;;;;;;;;;;;;;;;;5048626;28;20055;-80
2023/01/28 17:05:19;;;;;;;;;;;;;;;;;;5066244;28;20396;-82
2023/01/28 17:07:44;;;;;;;;;;;;;;;;;;5044054;28;20276;-82